Time;durP1;ratioP1;P1;durP2;ratioP2;P2;SDS_P1;SDS_P2;PMS_P1;PMS_P2;Temp;Humidity;BMP_temperature;BMP_pressure;BME280_temperature;BME280_humidity;BME280_pressure;Samples;Min_cycle;Max_cycle;Signal;HPM_P1;HPM_P2
2022/08/17 00:01:28;;;;;;;23.77;15.00;;;;;;;21.43;97.41;99366.28;5097218;23;20206;-61
2022/08/17 00:04:04;;;;;;;29.87;16.67;;;;;;;21.42;97.50;99363.81;5084820;23;20206;-61
2022/08/17 00:06:37;;;;;;;26.33;18.37;;;;;;;21.37;98.26;99361.81;5068793;23;25484;-63
2022/08/17 00:09:04;;;;;;;26.37;16.17;;;;;;;21.34;98.17;99361.50;5069791;23;20208;-64
2022/08/17 00:11:38;;;;;;;19.60;15.10;;;;;;;21.34;98.38;99367.72;5072028;23;22794;-62
2022/08/17 00:14:08;;;;;;;24.67;15.30;;;;;;;21.33;98.45;99363.38;5079929;23;20203;-63
2022/08/17 00:16:38;;;;;;;30.20;15.63;;;;;;;21.24;98.64;99367.53;5068273;23;20208;-63
2022/08/17 00:19:24;;;;;;;23.07;16.97;;;;;;;21.20;98.87;99363.66;5074704;23;20200;-63
2022/08/17 00:21:52;;;;;;;23.70;15.30;;;;;;;21.18;99.02;99357.66;5067383;23;20211;-62
2022/08/17 00:24:38;;;;;;;20.97;15.40;;;;;;;21.17;99.33;99364.97;5049259;23;20204;-63
2022/08/17 00:27:05;;;;;;;21.23;16.17;;;;;;;21.17;99.51;99372.28;5075007;23;21702;-64
2022/08/17 00:29:31;;;;;;;27.23;17.20;;;;;;;21.21;99.18;99363.44;5067795;23;20755;-64
2022/08/17 00:31:58;;;;;;;29.13;17.13;;;;;;;21.17;99.26;99361.44;5082800;23;20229;-62
2022/08/17 00:34:24;;;;;;;27.97;17.53;;;;;;;21.10;99.54;99361.59;5091015;23;21578;-63
2022/08/17 00:36:53;;;;;;;29.50;17.87;;;;;;;21.01;100.00;99373.84;5076813;23;20287;-61
2022/08/17 00:39:19;;;;;;;27.97;18.20;;;;;;;20.97;100.00;99368.06;5076838;23;21556;-62
2022/08/17 00:41:46;;;;;;;24.23;17.43;;;;;;;20.95;100.00;99375.59;5065855;23;20209;-63
2022/08/17 00:44:14;;;;;;;25.20;16.93;;;;;;;20.96;100.00;99369.16;5072184;23;20285;-63
2022/08/17 00:46:42;;;;;;;27.00;18.77;;;;;;;20.95;100.00;99375.59;5076652;23;20204;-60
2022/08/17 00:49:10;;;;;;;31.23;17.20;;;;;;;20.92;100.00;99370.69;5068233;23;21521;-61
2022/08/17 00:51:45;;;;;;;30.30;17.70;;;;;;;20.91;100.00;99374.47;5073343;23;20211;-62
2022/08/17 00:54:17;;;;;;;36.63;19.23;;;;;;;20.83;100.00;99369.41;5076478;23;20206;-62
2022/08/17 00:56:47;;;;;;;28.57;17.23;;;;;;;20.86;100.00;99368.91;5077426;23;20204;-63
2022/08/17 00:59:17;;;;;;;26.03;17.57;;;;;;;20.82;100.00;99370.47;5119247;23;20204;-61
2022/08/17 01:01:45;;;;;;;22.93;16.57;;;;;;;20.86;100.00;99367.06;5068046;23;20203;-61
2022/08/17 01:04:12;;;;;;;27.90;18.83;;;;;;;20.84;100.00;99363.75;5069095;23;20214;-62
2022/08/17 01:06:39;;;;;;;27.97;17.20;;;;;;;20.85;100.00;99375.41;5065942;23;22612;-60
2022/08/17 01:09:07;;;;;;;24.30;16.93;;;;;;;20.81;100.00;99358.00;5059830;23;20277;-63
2022/08/17 01:11:35;;;;;;;23.77;17.03;;;;;;;20.77;100.00;99365.78;5070347;23;20204;-61
2022/08/17 01:14:02;;;;;;;25.67;17.47;;;;;;;20.77;100.00;99373.06;5073973;23;20253;-62
2022/08/17 01:16:30;;;;;;;24.50;17.43;;;;;;;20.81;100.00;99368.81;5063865;23;20204;-62
2022/08/17 01:19:12;;;;;;;26.30;17.80;;;;;;;20.74;100.00;99363.53;5068672;23;20207;-61
2022/08/17 01:22:25;;;;;;;26.00;18.00;;;;;;;20.71;100.00;99365.91;5030380;23;20274;-63
2022/08/17 01:24:57;;;;;;;24.80;17.37;;;;;;;20.66;100.00;99372.03;5064621;23;21841;-63
2022/08/17 01:27:25;;;;;;;25.33;17.77;;;;;;;20.63;100.00;99364.41;5068512;23;20758;-62
2022/08/17 01:29:56;;;;;;;25.73;17.17;;;;;;;20.64;100.00;99364.13;5056480;23;24650;-62
2022/08/17 01:32:25;;;;;;;32.97;19.83;;;;;;;20.61;100.00;99372.72;5085774;23;20269;-63
2022/08/17 01:34:52;;;;;;;31.30;19.83;;;;;;;20.59;100.00;99368.63;5079873;23;23415;-63
2022/08/17 01:37:27;;;;;;;29.60;19.60;;;;;;;20.60;100.00;99373.81;5089966;23;20204;-62
2022/08/17 01:39:59;;;;;;;28.63;19.60;;;;;;;20.57;100.00;99374.25;5055315;23;21321;-61
2022/08/17 01:42:39;;;;;;;27.43;18.53;;;;;;;20.55;100.00;99373.63;5068557;23;22938;-64
2022/08/17 01:45:13;;;;;;;32.77;19.27;;;;;;;20.50;100.00;99378.13;5092299;23;21689;-61
2022/08/17 01:47:40;;;;;;;30.13;19.50;;;;;;;20.46;100.00;99377.75;5068538;23;20265;-63
2022/08/17 01:50:10;;;;;;;26.90;19.53;;;;;;;20.48;100.00;99385.63;5069800;23;20306;-61
2022/08/17 01:52:36;;;;;;;35.17;20.23;;;;;;;20.41;100.00;99374.94;5073757;23;20258;-62
2022/08/17 01:55:04;;;;;;;24.27;18.47;;;;;;;20.48;100.00;99375.63;5055528;23;20255;-62
2022/08/17 01:57:30;;;;;;;34.07;19.77;;;;;;;20.50;100.00;99381.63;5080623;23;20275;-63
2022/08/17 01:59:57;;;;;;;30.80;19.57;;;;;;;20.49;100.00;99376.50;5084538;23;22767;-62
2022/08/17 02:02:24;;;;;;;29.77;19.00;;;;;;;20.47;100.00;99376.72;5070127;23;21186;-62
2022/08/17 02:04:57;;;;;;;27.97;18.77;;;;;;;20.37;100.00;99373.75;5093199;23;20465;-60
2022/08/17 02:07:24;;;;;;;26.43;18.30;;;;;;;20.42;100.00;99377.41;5069974;23;20218;-64
2022/08/17 02:09:52;;;;;;;25.27;18.40;;;;;;;20.38;100.00;99381.63;5078029;23;20204;-62
2022/08/17 02:12:19;;;;;;;35.40;19.37;;;;;;;20.30;100.00;99379.31;5072258;23;25287;-65
2022/08/17 02:15:06;;;;;;;30.37;20.23;;;;;;;20.28;100.00;99376.00;5083985;23;22176;-61
2022/08/17 02:17:33;;;;;;;32.47;19.83;;;;;;;20.29;100.00;99379.53;5094994;23;20210;-60
2022/08/17 02:20:00;;;;;;;30.60;20.30;;;;;;;20.29;100.00;99382.22;5071507;23;20260;-63
2022/08/17 02:22:27;;;;;;;27.60;20.13;;;;;;;20.26;100.00;99385.41;5053926;23;20609;-62
2022/08/17 02:24:54;;;;;;;34.50;20.57;;;;;;;20.23;100.00;99381.31;5092469;23;22679;-64
2022/08/17 02:27:27;;;;;;;28.07;20.50;;;;;;;20.19;100.00;99388.22;5072765;23;20208;-62
2022/08/17 02:29:53;;;;;;;30.33;20.40;;;;;;;20.18;100.00;99387.41;5071617;23;20321;-62
2022/08/17 02:32:24;;;;;;;28.27;20.70;;;;;;;20.14;100.00;99386.22;5066425;23;20808;-62
2022/08/17 02:34:55;;;;;;;30.27;19.90;;;;;;;20.08;100.00;99381.75;5071437;23;20329;-62
2022/08/17 02:37:21;;;;;;;30.63;21.53;;;;;;;20.07;100.00;99380.09;5078965;23;20204;-61
2022/08/17 02:39:48;;;;;;;36.30;21.30;;;;;;;20.08;100.00;99384.44;5090365;23;20643;-62
2022/08/17 02:42:15;;;;;;;26.47;19.23;;;;;;;20.10;100.00;99378.81;5100177;23;20258;-62
2022/08/17 02:44:41;;;;;;;27.30;18.90;;;;;;;20.10;100.00;99382.34;5081407;23;20415;-61
2022/08/17 02:47:10;;;;;;;27.70;20.23;;;;;;;20.05;100.00;99387.63;5079642;23;20204;-63
2022/08/17 02:49:37;;;;;;;27.80;19.60;;;;;;;20.05;100.00;99384.91;5070085;23;20211;-62
2022/08/17 02:52:05;;;;;;;27.10;19.20;;;;;;;20.04;100.00;99388.66;5073642;23;20481;-61
2022/08/17 02:54:32;;;;;;;34.83;20.40;;;;;;;20.08;100.00;99389.84;5083095;23;20214;-64
2022/08/17 02:57:08;;;;;;;29.73;17.70;;;;;;;20.05;100.00;99393.00;5078285;23;20348;-64
2022/08/17 02:59:34;;;;;;;26.20;17.07;;;;;;;20.07;100.00;99390.91;5083005;23;20203;-62
2022/08/17 03:02:03;;;;;;;26.27;18.83;;;;;;;20.03;100.00;99390.53;5055280;23;20211;-61
2022/08/17 03:04:30;;;;;;;23.57;16.57;;;;;;;20.08;100.00;99386.31;5076356;23;20214;-62
2022/08/17 03:07:00;;;;;;;24.40;15.67;;;;;;;20.10;100.00;99395.03;5079503;23;25305;-63
2022/08/17 03:09:27;;;;;;;23.43;15.97;;;;;;;20.13;100.00;99384.56;5071922;23;20513;-62
2022/08/17 03:11:53;;;;;;;21.40;15.73;;;;;;;20.10;100.00;99390.44;5069667;23;20247;-64
2022/08/17 03:14:21;;;;;;;24.23;15.00;;;;;;;20.07;100.00;99388.22;5075847;23;20869;-61
2022/08/17 03:16:51;;;;;;;33.80;16.63;;;;;;;20.07;100.00;99390.09;5076322;23;20210;-63
2022/08/17 03:19:18;;;;;;;28.70;16.63;;;;;;;20.06;100.00;99389.25;5075916;23;20226;-62
2022/08/17 03:21:45;;;;;;;26.97;15.50;;;;;;;20.10;100.00;99395.84;5081064;23;20323;-60
2022/08/17 03:24:20;;;;;;;24.07;13.77;;;;;;;20.12;100.00;99395.63;5071673;23;20214;-62
2022/08/17 03:26:53;;;;;;;23.60;14.97;;;;;;;20.11;100.00;99393.94;5092375;23;20967;-62
2022/08/17 03:29:20;;;;;;;23.93;15.20;;;;;;;20.02;100.00;99399.72;5075053;23;20208;-62
2022/08/17 03:31:48;;;;;;;27.47;15.37;;;;;;;20.00;100.00;99392.91;5084600;23;20358;-62
2022/08/17 03:34:15;;;;;;;24.73;15.47;;;;;;;20.05;100.00;99403.00;5074941;23;21113;-64
2022/08/17 03:36:42;;;;;;;23.50;14.33;;;;;;;20.04;100.00;99407.56;5072861;23;20218;-62
2022/08/17 03:39:08;;;;;;;26.90;15.20;;;;;;;20.01;100.00;99410.72;5075781;23;20294;-61
2022/08/17 03:41:35;;;;;;;24.70;14.87;;;;;;;20.02;100.00;99412.41;5072628;23;20209;-61
2022/08/17 03:44:02;;;;;;;22.17;14.83;;;;;;;20.08;100.00;99419.56;5073873;23;20291;-61
2022/08/17 03:57:31;;;;;;;27.90;15.33;;;;;;;20.16;100.00;99427.34;5066596;23;20277;-62
2022/08/17 03:59:58;;;;;;;21.73;13.50;;;;;;;20.26;100.00;99421.34;5083731;23;20207;-61
2022/08/17 04:02:31;;;;;;;24.60;15.13;;;;;;;20.26;100.00;99432.16;5086141;23;20207;-61
2022/08/17 04:04:58;;;;;;;22.53;14.57;;;;;;;20.32;100.00;99436.63;5069487;23;22726;-63
2022/08/17 04:07:29;;;;;;;25.20;14.63;;;;;;;20.39;100.00;99431.94;5098628;23;20740;-63
2022/08/17 04:09:58;;;;;;;18.47;13.50;;;;;;;20.45;100.00;99435.56;5079657;23;20285;-61
2022/08/17 04:12:29;;;;;;;21.13;14.00;;;;;;;20.51;100.00;99440.06;5070057;23;21731;-62
2022/08/17 04:14:57;;;;;;;20.80;15.40;;;;;;;20.54;100.00;99441.47;5074698;23;21226;-62
2022/08/17 04:17:26;;;;;;;27.13;16.97;;;;;;;20.54;100.00;99444.97;5078260;23;25978;-61
2022/08/17 04:19:54;;;;;;;26.73;16.33;;;;;;;20.58;100.00;99442.66;5106970;23;20203;-63
2022/08/17 04:22:21;;;;;;;26.83;15.17;;;;;;;20.63;100.00;99443.59;5058545;23;20322;-62
2022/08/17 04:25:13;;;;;;;29.23;16.30;;;;;;;20.71;100.00;99450.53;5107379;23;21033;-62
2022/08/17 04:27:40;;;;;;;19.43;13.93;;;;;;;20.79;100.00;99438.53;5058360;23;20200;-62
2022/08/17 04:30:07;;;;;;;21.80;13.73;;;;;;;20.95;100.00;99435.09;5082430;23;21771;-61
2022/08/17 04:32:51;;;;;;;20.97;13.27;;;;;;;21.17;100.00;99437.19;5097658;23;20211;-61
2022/08/17 04:35:41;;;;;;;25.43;12.93;;;;;;;21.29;98.17;99440.69;5096092;23;20206;-63
2022/08/17 04:38:10;;;;;;;22.90;11.83;;;;;;;21.26;97.03;99446.59;5086432;23;21059;-63
2022/08/17 04:43:23;;;;;;;19.10;12.00;;;;;;;21.26;96.43;99442.00;5077669;23;21145;-64
2022/08/17 04:45:57;;;;;;;19.17;11.27;;;;;;;21.27;96.30;99443.63;5072366;23;25110;-61
2022/08/17 04:48:28;;;;;;;23.30;11.83;;;;;;;21.38;95.42;99443.84;5069788;23;20274;-64
2022/08/17 04:51:09;;;;;;;18.47;11.00;;;;;;;21.53;95.07;99429.81;5066075;23;20207;-63
2022/08/17 04:53:37;;;;;;;24.93;12.20;;;;;;;21.50;95.02;99431.94;5081842;23;21100;-62
2022/08/17 04:56:04;;;;;;;18.53;11.40;;;;;;;21.62;94.53;99440.00;5083219;23;20203;-62
2022/08/17 04:58:31;;;;;;;21.60;10.70;;;;;;;21.75;93.28;99433.50;5102382;23;20208;-63
2022/08/17 05:00:58;;;;;;;16.90;10.73;;;;;;;21.79;93.60;99439.22;5081108;23;20502;-63
2022/08/17 05:03:24;;;;;;;17.70;11.33;;;;;;;21.85;92.98;99444.50;5073711;23;21586;-64
2022/08/17 05:05:52;;;;;;;16.10;10.87;;;;;;;21.90;93.34;99446.47;5068194;23;20214;-63
2022/08/17 05:08:20;;;;;;;18.27;10.70;;;;;;;22.03;93.26;99453.47;5084346;23;20214;-63
2022/08/17 05:10:47;;;;;;;21.43;11.33;;;;;;;22.07;90.69;99451.91;5076989;23;21446;-63
2022/08/17 05:13:16;;;;;;;17.80;10.63;;;;;;;22.18;89.39;99453.75;5083402;23;20286;-62
2022/08/17 05:15:44;;;;;;;20.23;10.60;;;;;;;22.21;89.16;99450.56;5089964;23;20217;-61
2022/08/17 05:18:13;;;;;;;19.43;11.70;;;;;;;22.33;87.93;99445.88;5073351;23;20346;-62
2022/08/17 05:20:40;;;;;;;18.50;11.37;;;;;;;22.44;87.70;99451.47;5075278;23;21309;-61
2022/08/17 05:23:09;;;;;;;16.30;10.93;;;;;;;22.46;87.24;99457.47;5074657;23;20208;-62
2022/08/17 05:25:39;;;;;;;18.47;11.20;;;;;;;22.31;87.38;99458.88;5068246;23;20290;-62
2022/08/17 05:28:07;;;;;;;22.97;10.93;;;;;;;22.39;87.91;99460.34;5078044;23;20218;-62
2022/08/17 05:30:34;;;;;;;23.23;10.50;;;;;;;22.45;87.89;99461.25;5068748;23;23025;-64
2022/08/17 05:33:05;;;;;;;19.93;9.87;;;;;;;22.63;87.69;99466.41;5079103;23;21144;-62
2022/08/17 05:35:34;;;;;;;15.13;9.77;;;;;;;22.77;86.44;99469.59;5071712;23;20270;-64
2022/08/17 05:38:00;;;;;;;22.27;10.30;;;;;;;22.73;85.88;99466.59;5075782;23;20204;-63
2022/08/17 05:40:27;;;;;;;20.33;10.80;;;;;;;22.90;85.79;99465.72;5074480;23;20204;-64
2022/08/17 05:43:35;;;;;;;20.70;10.43;;;;;;;23.06;84.04;99475.75;5071128;23;22239;-62
2022/08/17 05:46:24;;;;;;;18.43;9.67;;;;;;;23.27;83.95;99470.56;5043832;23;20465;-61
2022/08/17 05:48:53;;;;;;;20.10;10.40;;;;;;;23.44;82.41;99476.78;5076223;23;20215;-63
2022/08/17 05:51:44;;;;;;;21.00;10.33;;;;;;;23.54;81.01;99482.31;5078541;23;20908;-63
2022/08/17 05:54:26;;;;;;;15.93;9.67;;;;;;;23.71;80.67;99486.84;5090435;23;20424;-62
2022/08/17 05:57:18;;;;;;;21.10;10.13;;;;;;;23.80;79.99;99482.63;5099316;23;20207;-63
2022/08/17 05:59:49;;;;;;;19.40;9.00;;;;;;;23.98;79.12;99481.47;5084367;23;20269;-62
2022/08/17 06:02:34;;;;;;;23.93;9.33;;;;;;;24.02;77.12;99478.00;5117951;23;20236;-62
2022/08/17 06:05:22;;;;;;;17.00;9.20;;;;;;;24.15;77.06;99482.16;5073499;23;20286;-62
2022/08/17 06:08:14;;;;;;;18.67;9.83;;;;;;;24.29;75.46;99482.56;5077489;23;21092;-62
2022/08/17 06:10:46;;;;;;;19.10;9.47;;;;;;;24.30;74.65;99481.47;5086716;23;20207;-66
2022/08/17 06:13:30;;;;;;;18.27;9.00;;;;;;;24.53;74.13;99490.41;5064859;23;20200;-68
2022/08/17 06:16:07;;;;;;;19.87;9.20;;;;;;;24.87;72.48;99493.66;5083981;23;20272;-61
2022/08/17 06:19:00;;;;;;;13.47;9.20;;;;;;;25.28;70.55;99499.34;5073496;23;20394;-63
2022/08/17 06:21:32;;;;;;;17.13;8.73;;;;;;;25.65;69.56;99503.88;5063212;23;20208;-64
2022/08/17 06:24:05;;;;;;;16.93;9.40;;;;;;;25.80;68.45;99501.19;5080810;23;20232;-65
2022/08/17 06:26:35;;;;;;;20.17;10.20;;;;;;;25.90;67.89;99508.59;5050460;23;20204;-62
2022/08/17 06:29:36;;;;;;;25.57;10.57;;;;;;;25.80;67.43;99500.34;5052750;23;20217;-62
2022/08/17 06:32:04;;;;;;;26.17;9.67;;;;;;;25.74;68.13;99507.72;5086597;23;22888;-62
2022/08/17 06:34:32;;;;;;;19.70;9.10;;;;;;;25.99;68.27;99497.97;5065936;23;20916;-62
2022/08/17 06:37:20;;;;;;;18.77;8.70;;;;;;;26.08;66.07;99510.81;5094966;23;21362;-64
2022/08/17 06:39:51;;;;;;;20.47;9.37;;;;;;;26.05;66.18;99511.34;5080462;23;21569;-63
2022/08/17 06:42:21;;;;;;;18.15;9.95;;;;;;;26.72;64.53;99516.88;5097811;23;20302;-63
2022/08/17 06:45:16;;;;;;;22.00;9.80;;;;;;;28.28;58.72;99525.06;5125667;23;20212;-63
2022/08/17 06:47:59;;;;;;;16.33;8.60;;;;;;;28.88;54.15;99524.88;5076973;23;20215;-65
2022/08/17 06:50:39;;;;;;;15.50;7.97;;;;;;;28.46;54.64;99527.16;5083422;23;20281;-61
2022/08/17 06:53:22;;;;;;;12.38;8.40;;;;;;;28.04;56.12;99519.47;5086845;23;21053;-61
2022/08/17 06:56:04;;;;;;;17.38;8.07;;;;;;;27.58;57.82;99507.66;5099590;23;20221;-64
2022/08/17 06:58:32;;;;;;;11.57;8.00;;;;;;;28.22;56.20;99518.00;5095075;23;22735;-60
2022/08/17 07:01:09;;;;;;;19.65;8.55;;;;;;;29.15;53.85;99529.81;5106259;23;23252;-61
2022/08/17 07:03:44;;;;;;;14.60;7.78;;;;;;;31.36;46.04;99544.69;5091161;23;21502;-66
2022/08/17 07:06:16;;;;;;;11.38;8.05;;;;;;;32.78;41.85;99552.88;5088995;23;20485;-61
2022/08/17 07:08:58;;;;;;;12.85;7.45;;;;;;;34.23;38.35;99563.16;5111365;23;20297;-64
2022/08/17 07:11:39;;;;;;;18.58;8.15;;;;;;;35.47;34.84;99568.09;5104203;23;20210;-61
2022/08/17 07:14:36;;;;;;;14.82;6.38;;;;;;;36.13;32.79;99582.28;5088672;23;20207;-69
2022/08/17 07:17:08;;;;;;;14.57;6.45;;;;;;;36.22;32.93;99575.84;5106229;23;22703;-63
2022/08/17 07:19:39;;;;;;;18.85;7.70;;;;;;;36.61;32.11;99579.28;5160363;23;23089;-49
2022/08/17 07:22:12;;;;;;;13.75;7.60;;;;;;;36.83;31.52;99573.38;5091799;23;22872;-65
2022/08/17 07:24:56;;;;;;;18.15;7.47;;;;;;;37.63;29.61;99582.41;5078867;23;22395;-61
2022/08/17 07:27:30;;;;;;;19.73;7.85;;;;;;;37.51;29.83;99581.25;5136194;23;20377;-62
2022/08/17 07:30:04;;;;;;;19.05;8.35;;;;;;;37.02;30.50;99575.59;5111334;23;20533;-65
2022/08/17 07:32:45;;;;;;;14.27;7.45;;;;;;;37.15;30.08;99579.22;5096223;23;21672;-63
2022/08/17 07:35:29;;;;;;;16.92;8.60;;;;;;;37.54;30.01;99582.53;5109050;23;20205;-64
2022/08/17 07:38:10;;;;;;;17.67;7.25;;;;;;;38.32;28.86;99586.94;5084553;23;22875;-64
2022/08/17 07:41:00;;;;;;;16.13;6.78;;;;;;;38.69;26.91;99583.25;5075625;23;20206;-63
2022/08/17 07:43:36;;;;;;;15.43;6.63;;;;;;;37.82;28.37;99579.06;5075472;23;20218;-65
2022/08/17 07:49:11;;;;;;;12.18;6.65;;;;;;;36.53;30.05;99562.38;5087408;23;20208;-65
2022/08/17 07:51:44;;;;;;;16.73;7.32;;;;;;;36.40;30.85;99563.47;5078182;23;20382;-63
2022/08/17 07:54:13;;;;;;;12.60;6.50;;;;;;;34.64;33.59;99548.03;5045291;23;21770;-61
2022/08/17 07:56:52;;;;;;;13.93;6.63;;;;;;;32.67;37.28;99538.53;5070046;23;20207;-63
2022/08/17 07:59:28;;;;;;;13.50;6.45;;;;;;;31.76;40.28;99532.03;5118212;23;20292;-66
2022/08/17 08:02:06;;;;;;;15.20;6.72;;;;;;;32.52;39.23;99528.72;5080276;23;20354;-64
2022/08/17 08:04:42;;;;;;;17.45;7.30;;;;;;;32.65;38.60;99535.25;5079376;23;20207;-65
2022/08/17 08:07:34;;;;;;;16.42;7.03;;;;;;;32.54;38.62;99542.16;5099845;23;21588;-64
2022/08/17 08:10:08;;;;;;;15.23;8.23;;;;;;;32.27;40.00;99535.63;5106563;23;20598;-61
2022/08/17 08:13:08;;;;;;;12.82;7.03;;;;;;;32.20;39.51;99529.72;5090669;23;20203;-65
2022/08/17 08:15:48;;;;;;;18.17;7.50;;;;;;;31.90;40.31;99520.19;5099550;23;20211;-64
2022/08/17 08:18:28;;;;;;;18.75;7.60;;;;;;;30.94;42.38;99515.53;5145652;23;20203;-72
2022/08/17 08:21:23;;;;;;;17.57;7.90;;;;;;;31.05;43.79;99511.47;5185901;23;21567;-74
2022/08/17 08:23:58;;;;;;;14.38;7.53;;;;;;;30.47;45.19;99515.50;5120497;23;21383;-75
2022/08/17 08:26:54;;;;;;;13.55;7.22;;;;;;;29.93;46.88;99520.41;5123591;23;20568;-77
2022/08/17 08:29:27;;;;;;;12.83;6.63;;;;;;;29.05;48.52;99512.34;5116390;23;20212;-70
2022/08/17 08:32:19;;;;;;;16.83;6.87;;;;;;;29.13;47.56;99519.16;5104503;23;20278;-71
2022/08/17 08:35:03;;;;;;;16.58;7.57;;;;;;;29.01;48.76;99522.28;5123003;23;20221;-70
2022/08/17 08:37:56;;;;;;;13.53;6.80;;;;;;;28.85;49.90;99507.09;5082126;23;20263;-75
2022/08/17 08:40:44;;;;;;;16.85;7.32;;;;;;;29.36;48.59;99517.53;5079790;23;20291;-75
2022/08/17 08:43:36;;;;;;;17.63;7.43;;;;;;;29.80;47.31;99523.84;5063035;23;21920;-71
2022/08/17 08:46:44;;;;;;;10.57;6.50;;;;;;;29.64;47.43;99517.72;5101024;23;20207;-69
2022/08/17 08:49:26;;;;;;;12.25;6.78;;;;;;;29.98;46.65;99523.06;5127822;23;20213;-72
2022/08/17 08:52:36;;;;;;;17.27;6.45;;;;;;;29.98;45.55;99522.25;5100044;23;20253;-70
2022/08/17 08:55:06;;;;;;;10.43;6.87;;;;;;;29.34;48.30;99511.53;5097058;23;20214;-74
2022/08/17 08:57:41;;;;;;;15.82;7.20;;;;;;;29.23;48.77;99510.81;5088268;23;20809;-71
2022/08/17 09:00:34;;;;;;;19.50;6.82;;;;;;;28.96;49.55;99511.38;5091681;23;20680;-75
2022/08/17 09:03:20;;;;;;;10.90;5.95;;;;;;;28.47;48.46;99515.13;5112186;23;20203;-76
2022/08/17 09:06:35;;;;;;;11.47;6.03;;;;;;;28.36;50.09;99508.84;5088097;23;20393;-71
2022/08/17 09:09:40;;;;;;;13.67;6.07;;;;;;;28.71;51.21;99511.63;5144554;23;20297;-76
2022/08/17 09:12:15;;;;;;;13.20;6.40;;;;;;;28.54;50.28;99506.53;5076872;23;21896;-72
2022/08/17 09:14:52;;;;;;;10.87;6.20;;;;;;;28.85;49.96;99514.50;5087433;23;20207;-70
2022/08/17 09:17:35;;;;;;;11.13;6.15;;;;;;;29.08;48.45;99521.13;5095776;23;20202;-76
2022/08/17 09:20:11;;;;;;;15.93;6.63;;;;;;;28.54;49.03;99512.84;5084713;23;20235;-77
2022/08/17 09:23:02;;;;;;;13.75;6.85;;;;;;;28.23;50.34;99516.91;5091409;23;22928;-73
2022/08/17 09:25:32;;;;;;;9.02;5.80;;;;;;;28.61;49.99;99515.25;5079388;23;20274;-72
2022/08/17 09:28:05;;;;;;;13.98;6.40;;;;;;;28.83;49.91;99514.78;5115532;23;21198;-78
2022/08/17 09:30:39;;;;;;;9.18;5.18;;;;;;;28.87;49.18;99515.00;5072002;23;21109;-76
2022/08/17 09:33:08;;;;;;;13.13;6.25;;;;;;;28.69;48.81;99511.09;5080446;23;20203;-74
2022/08/17 09:35:43;;;;;;;11.18;5.57;;;;;;;28.82;47.40;99524.09;5095198;23;22055;-74
2022/08/17 09:38:25;;;;;;;11.03;5.43;;;;;;;28.81;47.59;99517.00;5100184;23;20343;-75
2022/08/17 09:41:18;;;;;;;11.52;6.00;;;;;;;28.96;48.35;99525.06;5091714;23;20352;-72
2022/08/17 09:44:05;;;;;;;14.25;5.97;;;;;;;29.40;47.89;99523.25;5081228;23;20265;-75
2022/08/17 09:47:04;;;;;;;11.97;5.63;;;;;;;29.39;47.15;99527.91;5145634;23;20202;-72
2022/08/17 09:49:44;;;;;;;22.65;6.20;;;;;;;29.31;47.68;99528.53;5105960;23;20259;-75
2022/08/17 09:52:19;;;;;;;10.98;5.60;;;;;;;29.17;48.61;99530.34;5076723;23;22133;-74
2022/08/17 09:54:47;;;;;;;9.20;5.93;;;;;;;28.82;49.19;99519.44;5107260;23;20211;-73
2022/08/17 09:57:41;;;;;;;10.98;6.07;;;;;;;28.86;49.21;99524.34;5110235;23;20482;-70
2022/08/17 10:00:17;;;;;;;16.65;6.00;;;;;;;28.77;48.54;99527.69;5119936;23;20204;-79
2022/08/17 10:02:54;;;;;;;11.55;6.32;;;;;;;28.33;49.63;99522.28;5117041;23;20285;-74
2022/08/17 10:05:45;;;;;;;16.02;5.82;;;;;;;28.32;51.93;99521.47;5079794;23;20204;-72
2022/08/17 10:08:27;;;;;;;11.25;6.72;;;;;;;28.25;52.16;99518.25;5110586;23;20199;-68
2022/08/17 10:11:16;;;;;;;14.02;6.53;;;;;;;28.37;51.30;99520.63;5097816;23;20716;-67
2022/08/17 10:13:55;;;;;;;13.93;6.22;;;;;;;28.08;51.15;99528.75;5098777;23;21242;-72
2022/08/17 10:16:37;;;;;;;13.60;6.65;;;;;;;27.83;53.02;99530.53;5127010;23;25951;-68
2022/08/17 10:19:17;;;;;;;12.67;5.97;;;;;;;27.86;53.09;99524.53;5098414;23;20519;-74
2022/08/17 10:27:54;;;;;;;11.43;6.50;;;;;;;27.33;55.32;99522.25;5165823;23;20280;-73
2022/08/17 10:30:24;;;;;;;13.48;6.53;;;;;;;27.46;54.26;99530.94;5081497;23;20207;-74
2022/08/17 10:33:22;;;;;;;15.27;6.72;;;;;;;27.68;52.59;99523.19;5125198;23;20203;-73
2022/08/17 10:35:58;;;;;;;15.00;6.35;;;;;;;28.09;52.48;99530.38;5089586;23;20203;-75
2022/08/17 10:38:46;;;;;;;9.85;6.10;;;;;;;28.55;50.50;99522.69;5095984;23;21354;-73
2022/08/17 10:41:26;;;;;;;10.43;5.97;;;;;;;28.70;49.38;99526.41;5099553;23;20698;-73
2022/08/17 10:44:28;;;;;;;10.75;6.32;;;;;;;28.68;49.57;99518.50;5103702;23;21428;-72
2022/08/17 10:47:15;;;;;;;11.40;6.38;;;;;;;28.13;51.31;99529.53;5088137;23;20569;-73
2022/08/17 10:49:48;;;;;;;16.30;6.57;;;;;;;27.92;51.98;99522.56;5148921;23;21079;-71
2022/08/17 10:52:18;;;;;;;11.43;6.47;;;;;;;27.83;52.61;99521.47;5117025;23;20211;-70
2022/08/17 10:54:50;;;;;;;16.27;6.93;;;;;;;27.96;52.86;99524.44;5123004;23;20292;-70
2022/08/17 10:57:33;;;;;;;11.23;6.00;;;;;;;28.15;52.08;99523.78;5169256;23;20277;-69
2022/08/17 11:00:01;;;;;;;11.57;6.20;;;;;;;28.55;50.13;99521.88;5106478;23;20204;-75
2022/08/17 11:02:36;;;;;;;8.52;6.32;;;;;;;28.88;48.22;99533.91;5095035;23;20631;-73
2022/08/17 11:05:27;;;;;;;14.05;6.35;;;;;;;29.22;46.41;99536.59;5116738;23;20203;-72
2022/08/17 11:08:12;;;;;;;9.13;5.80;;;;;;;29.52;45.77;99533.78;5131781;23;20324;-73
2022/08/17 11:10:52;;;;;;;10.48;6.07;;;;;;;29.13;45.23;99521.91;5114619;23;20302;-75
2022/08/17 11:13:37;;;;;;;12.05;6.20;;;;;;;28.76;47.36;99515.13;5147091;23;20255;-74
2022/08/17 11:16:21;;;;;;;12.80;5.47;;;;;;;28.97;44.33;99523.94;5130160;23;20219;-74
2022/08/17 11:19:13;;;;;;;15.65;8.25;;;;;;;29.08;44.29;99523.88;5165410;23;20667;-75
2022/08/17 11:21:58;;;;;;;13.55;6.35;;;;;;;29.62;43.06;99528.19;5145957;23;20207;-75
2022/08/17 11:24:39;;;;;;;11.70;5.95;;;;;;;30.05;43.16;99522.69;5120745;23;23287;-76
2022/08/17 11:27:18;;;;;;;10.45;6.03;;;;;;;30.33;42.31;99531.09;5144171;23;20369;-74
2022/08/17 11:29:53;;;;;;;10.27;6.18;;;;;;;30.44;42.66;99535.31;5101483;23;20248;-72
2022/08/17 11:32:32;;;;;;;13.15;7.10;;;;;;;30.01;43.30;99532.63;5118672;23;21077;-74
2022/08/17 11:35:20;;;;;;;11.90;6.85;;;;;;;29.67;43.22;99528.16;5132509;23;25375;-73
2022/08/17 11:38:09;;;;;;;14.02;6.70;;;;;;;29.43;43.98;99519.91;5158781;23;20215;-73
2022/08/17 11:41:04;;;;;;;14.25;6.70;;;;;;;28.99;45.76;99524.47;5146941;23;20257;-74
2022/08/17 11:43:54;;;;;;;16.98;6.40;;;;;;;28.57;47.23;99515.00;5087131;23;21553;-72
2022/08/17 11:52:37;;;;;;;12.35;5.95;;;;;;;28.53;47.82;99516.69;5125338;23;20258;-74
2022/08/17 11:55:05;;;;;;;14.48;6.75;;;;;;;28.53;47.87;99516.69;5106325;23;22943;-73
2022/08/17 11:58:00;;;;;;;14.13;6.90;;;;;;;28.55;48.13;99519.94;5117114;23;23217;-75
2022/08/17 12:00:39;;;;;;;12.52;6.65;;;;;;;28.27;47.54;99513.31;5073515;23;20203;-75
2022/08/17 12:03:42;;;;;;;13.18;6.45;;;;;;;28.36;49.08;99505.31;5098042;23;20211;-72
2022/08/17 12:06:26;;;;;;;11.25;6.47;;;;;;;28.55;46.90;99508.19;5122533;23;20214;-70
2022/08/17 12:09:17;;;;;;;11.02;6.32;;;;;;;28.44;46.49;99514.81;5124335;23;20213;-78
2022/08/17 12:11:57;;;;;;;15.52;6.28;;;;;;;28.48;45.79;99508.53;5108003;23;20501;-72
2022/08/17 12:14:52;;;;;;;11.43;5.95;;;;;;;28.86;45.23;99514.19;5112018;23;23079;-73
2022/08/17 12:17:38;;;;;;;9.82;6.25;;;;;;;29.26;45.67;99512.16;5121182;23;20544;-78
2022/08/17 12:20:29;;;;;;;14.45;6.55;;;;;;;29.59;44.04;99521.34;5127851;23;20261;-74
2022/08/17 12:23:05;;;;;;;11.77;5.93;;;;;;;29.58;42.83;99519.72;5117917;23;20231;-73
2022/08/17 12:25:57;;;;;;;12.88;6.00;;;;;;;29.61;42.13;99516.38;5116535;23;20203;-73
2022/08/17 12:28:29;;;;;;;13.50;6.10;;;;;;;29.79;41.43;99528.53;5130980;23;20641;-74
2022/08/17 12:31:00;;;;;;;15.77;7.13;;;;;;;30.25;40.78;99529.78;5075292;23;20379;-72